Time;durP1;ratioP1;P1;durP2;ratioP2;P2;SDS_P1;SDS_P2;PMS_P1;PMS_P2;Temp;Humidity;BMP_temperature;BMP_pressure;BME280_temperature;BME280_humidity;BME280_pressure;Samples;Min_cycle;Max_cycle;Signal;HPM_P1;HPM_P2
2024/04/14 00:00:11;;;;;;;12.88;9.75;;;15.30;99.90;;;;;;5553106;25;20473;-47
2024/04/14 00:02:38;;;;;;;14.02;9.48;;;15.20;99.90;;;;;;5544923;25;20032;-50
2024/04/14 00:05:05;;;;;;;13.13;9.40;;;15.20;99.90;;;;;;5550923;25;20264;-45
2024/04/14 00:07:32;;;;;;;12.63;9.63;;;15.10;99.90;;;;;;5501764;25;19997;-44
2024/04/14 00:10:00;;;;;;;11.75;9.70;;;15.10;99.90;;;;;;5541346;25;20053;-49
2024/04/14 00:12:27;;;;;;;12.07;9.05;;;15.00;99.90;;;;;;5550872;25;19993;-48
2024/04/14 00:14:55;;;;;;;10.55;9.23;;;15.00;99.90;;;;;;5552156;25;20033;-47
2024/04/14 00:17:22;;;;;;;13.88;9.10;;;15.00;99.90;;;;;;5548073;25;20012;-47
2024/04/14 00:19:52;;;;;;;11.52;9.32;;;14.90;99.90;;;;;;5548455;25;20503;-49
2024/04/14 00:22:20;;;;;;;12.60;9.63;;;14.90;99.90;;;;;;5545385;25;20013;-46
2024/04/14 00:24:47;;;;;;;12.25;9.13;;;14.90;99.90;;;;;;5555872;25;20020;-47
2024/04/14 00:27:15;;;;;;;10.98;9.68;;;14.90;99.90;;;;;;5540187;25;20045;-47
2024/04/14 00:29:41;;;;;;;11.27;9.38;;;14.80;99.90;;;;;;5555923;25;20025;-46
2024/04/14 00:32:09;;;;;;;10.52;9.13;;;14.80;99.90;;;;;;5544984;25;20001;-50
2024/04/14 00:34:36;;;;;;;14.85;9.13;;;14.70;99.90;;;;;;5537025;25;20017;-50
2024/04/14 00:37:05;;;;;;;10.52;8.60;;;14.60;99.90;;;;;;5544450;25;20009;-44
2024/04/14 00:39:32;;;;;;;9.82;8.70;;;14.50;99.90;;;;;;5538977;25;20402;-48
2024/04/14 00:42:00;;;;;;;11.32;9.52;;;14.50;99.90;;;;;;5545369;25;20011;-44
2024/04/14 00:44:27;;;;;;;10.80;9.13;;;14.50;99.90;;;;;;5544347;25;20013;-47
2024/04/14 00:46:54;;;;;;;10.43;9.32;;;14.50;99.90;;;;;;5552207;25;20028;-48
2024/04/14 00:49:22;;;;;;;12.80;9.57;;;14.50;99.90;;;;;;5501951;25;20070;-47
2024/04/14 00:51:51;;;;;;;11.48;8.88;;;14.40;99.90;;;;;;5543605;25;20005;-46
2024/04/14 00:54:19;;;;;;;10.57;9.45;;;14.40;99.90;;;;;;5548904;25;20449;-45
2024/04/14 00:56:47;;;;;;;11.98;9.07;;;14.30;99.90;;;;;;5533123;25;20318;-50
2024/04/14 00:59:15;;;;;;;10.13;9.07;;;14.30;99.90;;;;;;5552940;25;20009;-42
2024/04/14 01:01:43;;;;;;;12.13;9.32;;;14.20;99.90;;;;;;5552488;25;20007;-46
2024/04/14 01:04:10;;;;;;;12.02;9.18;;;14.10;99.90;;;;;;5534699;25;20013;-45
2024/04/14 01:06:38;;;;;;;11.98;9.18;;;14.10;99.90;;;;;;5539525;25;20025;-46
2024/04/14 01:09:05;;;;;;;12.30;8.93;;;14.10;99.90;;;;;;5540401;25;20041;-48
2024/04/14 01:11:33;;;;;;;11.35;8.95;;;14.10;99.90;;;;;;5552598;25;20354;-43
2024/04/14 01:14:07;;;;;;;12.18;9.75;;;14.10;99.90;;;;;;5549245;25;20012;-47
2024/04/14 01:16:36;;;;;;;14.88;9.88;;;14.10;99.90;;;;;;5547455;25;20024;-50
2024/04/14 01:19:04;;;;;;;14.05;10.00;;;14.10;99.90;;;;;;5541779;25;20043;-47
2024/04/14 01:21:34;;;;;;;13.85;10.32;;;14.10;99.90;;;;;;5549859;25;20427;-44
2024/04/14 01:24:01;;;;;;;11.85;9.57;;;14.10;99.90;;;;;;5541539;25;20010;-46
2024/04/14 01:26:28;;;;;;;12.77;10.02;;;14.00;99.90;;;;;;5547335;25;20001;-44
2024/04/14 01:28:55;;;;;;;12.15;9.80;;;14.10;99.90;;;;;;5540797;25;20330;-48
2024/04/14 01:31:22;;;;;;;10.90;9.65;;;14.00;99.90;;;;;;5548915;25;20395;-48
2024/04/14 01:33:50;;;;;;;12.18;8.70;;;14.00;99.90;;;;;;5543619;25;20030;-44
2024/04/14 01:36:17;;;;;;;13.55;9.43;;;14.10;99.90;;;;;;5547536;25;20015;-43
2024/04/14 01:38:44;;;;;;;11.25;9.85;;;14.00;99.90;;;;;;5549605;25;20004;-44
2024/04/14 01:41:11;;;;;;;11.48;9.80;;;14.00;99.90;;;;;;5550745;25;20467;-46
2024/04/14 01:43:38;;;;;;;11.32;9.60;;;14.00;99.90;;;;;;5545801;25;20395;-46
2024/04/14 01:46:05;;;;;;;13.18;9.60;;;13.90;99.90;;;;;;5550198;25;20074;-44
2024/04/14 01:48:32;;;;;;;10.88;9.77;;;13.90;99.90;;;;;;5542165;25;20394;-47
2024/04/14 01:51:01;;;;;;;11.02;9.15;;;13.90;99.90;;;;;;5538339;25;20055;-45
2024/04/14 01:53:29;;;;;;;13.27;9.40;;;13.80;99.90;;;;;;5543396;25;20348;-47
2024/04/14 01:55:56;;;;;;;10.15;8.77;;;13.80;99.90;;;;;;5508568;25;20070;-44
2024/04/14 01:58:23;;;;;;;11.10;9.48;;;13.80;99.90;;;;;;5545899;25;20112;-50
2024/04/14 02:00:50;;;;;;;15.73;9.80;;;13.70;99.90;;;;;;5548282;25;20112;-46
2024/04/14 02:03:17;;;;;;;12.70;10.02;;;13.70;99.90;;;;;;5542629;25;20012;-46
2024/04/14 02:05:44;;;;;;;14.88;10.13;;;13.70;99.90;;;;;;5545766;25;20080;-47
2024/04/14 02:08:11;;;;;;;11.20;9.65;;;13.70;99.90;;;;;;5549638;25;20103;-42
2024/04/14 02:10:39;;;;;;;14.23;10.32;;;13.70;99.90;;;;;;5550584;25;20015;-48
2024/04/14 02:13:06;;;;;;;15.82;10.63;;;13.70;99.90;;;;;;5549601;25;20442;-47
2024/04/14 02:15:33;;;;;;;11.38;9.63;;;13.70;99.90;;;;;;5540829;25;20009;-45
2024/04/14 02:18:00;;;;;;;13.70;10.02;;;13.70;99.90;;;;;;5546372;25;20032;-45
2024/04/14 02:20:27;;;;;;;12.00;9.68;;;13.60;99.90;;;;;;5547402;25;20015;-43
2024/04/14 02:22:54;;;;;;;11.85;9.93;;;13.60;99.90;;;;;;5543918;25;20000;-45
2024/04/14 02:25:21;;;;;;;12.25;9.90;;;13.60;99.90;;;;;;5549786;25;20005;-48
2024/04/14 02:27:48;;;;;;;13.20;11.00;;;13.50;99.90;;;;;;5546706;25;20669;-48
2024/04/14 02:30:16;;;;;;;13.75;9.77;;;13.50;99.90;;;;;;5544011;25;20029;-45
2024/04/14 02:32:43;;;;;;;11.27;9.80;;;13.50;99.90;;;;;;5563772;25;19996;-50
2024/04/14 02:35:10;;;;;;;12.25;9.30;;;13.50;99.90;;;;;;5538170;25;19993;-48
2024/04/14 02:37:37;;;;;;;11.57;9.20;;;13.40;99.90;;;;;;5554668;25;20294;-47
2024/04/14 02:40:05;;;;;;;13.77;10.00;;;13.40;99.90;;;;;;5543233;25;20021;-49
2024/04/14 02:42:34;;;;;;;13.30;10.60;;;13.40;99.90;;;;;;5550550;25;19997;-42
2024/04/14 02:45:02;;;;;;;13.38;10.40;;;13.40;99.90;;;;;;5542251;25;20138;-46
2024/04/14 02:47:29;;;;;;;17.65;10.40;;;13.50;99.90;;;;;;5522545;25;20589;-46
2024/04/14 02:49:56;;;;;;;12.77;10.65;;;13.50;99.90;;;;;;5547559;25;20093;-53
2024/04/14 02:52:23;;;;;;;11.52;10.32;;;13.40;99.90;;;;;;5544070;25;20006;-46
2024/04/14 02:54:51;;;;;;;13.77;9.88;;;13.40;99.90;;;;;;5532034;25;20509;-49
2024/04/14 02:57:18;;;;;;;11.00;9.68;;;13.50;99.90;;;;;;5545838;25;20001;-47
2024/04/14 02:59:45;;;;;;;12.63;9.95;;;13.50;99.90;;;;;;5553686;25;20016;-50
2024/04/14 03:02:13;;;;;;;12.77;9.40;;;13.40;99.90;;;;;;5541334;25;20005;-47
2024/04/14 03:04:40;;;;;;;11.38;9.65;;;13.40;99.90;;;;;;5544253;25;19993;-49
2024/04/14 03:07:07;;;;;;;11.05;9.80;;;13.30;99.90;;;;;;5558200;25;20434;-47
2024/04/14 03:09:34;;;;;;;14.88;10.57;;;13.30;99.90;;;;;;5525895;25;20108;-46
2024/04/14 03:12:02;;;;;;;12.80;10.50;;;13.30;99.90;;;;;;5540432;25;20013;-50
2024/04/14 03:14:29;;;;;;;12.23;10.93;;;13.30;99.90;;;;;;5557814;25;20531;-48
2024/04/14 03:16:56;;;;;;;13.75;10.75;;;13.30;99.90;;;;;;5542524;25;20004;-47
2024/04/14 03:19:25;;;;;;;11.25;9.55;;;13.30;99.90;;;;;;5547332;25;19996;-44
2024/04/14 03:21:52;;;;;;;11.57;10.02;;;13.30;99.90;;;;;;5552518;25;20071;-50
2024/04/14 03:24:19;;;;;;;12.35;11.02;;;13.40;99.90;;;;;;5556682;25;20005;-48
2024/04/14 03:26:46;;;;;;;12.75;9.70;;;13.30;99.90;;;;;;5553434;25;20000;-48
2024/04/14 03:29:13;;;;;;;11.82;9.98;;;13.40;99.90;;;;;;5545282;25;19993;-47
2024/04/14 03:31:40;;;;;;;12.38;9.93;;;13.40;99.90;;;;;;5540807;25;20000;-47
2024/04/14 03:34:07;;;;;;;13.80;10.25;;;13.40;99.90;;;;;;5552906;25;20012;-50
2024/04/14 03:36:34;;;;;;;13.07;10.40;;;13.40;99.90;;;;;;5554134;25;19996;-48
2024/04/14 03:39:01;;;;;;;11.07;9.60;;;13.40;99.90;;;;;;5550929;25;20005;-47
2024/04/14 03:41:29;;;;;;;14.95;10.45;;;13.40;99.90;;;;;;5542673;25;20809;-47
2024/04/14 03:43:56;;;;;;;11.30;9.68;;;13.30;99.90;;;;;;5549390;25;20457;-46
2024/04/14 03:46:23;;;;;;;13.35;9.90;;;13.30;99.90;;;;;;5546162;25;20017;-47
2024/04/14 03:48:50;;;;;;;10.43;9.18;;;13.30;99.90;;;;;;5562417;25;20000;-47
2024/04/14 03:51:18;;;;;;;13.63;9.25;;;13.30;99.90;;;;;;5545247;25;20330;-48
2024/04/14 03:53:45;;;;;;;10.15;8.55;;;13.30;99.90;;;;;;5544904;25;20075;-46
2024/04/14 03:56:12;;;;;;;13.43;9.80;;;13.30;99.90;;;;;;5545006;25;20330;-46
2024/04/14 03:58:39;;;;;;;11.32;8.73;;;13.30;99.90;;;;;;5546847;25;20444;-43
2024/04/14 04:01:07;;;;;;;11.73;9.50;;;13.40;99.90;;;;;;5541764;25;20005;-48
2024/04/14 04:03:34;;;;;;;11.88;9.38;;;13.40;99.90;;;;;;5550583;25;20001;-44
2024/04/14 04:06:03;;;;;;;12.68;9.10;;;13.40;99.90;;;;;;5541642;25;20005;-48
2024/04/14 04:08:30;;;;;;;13.88;9.48;;;13.40;99.90;;;;;;5512956;25;20426;-50
2024/04/14 04:11:02;;;;;;;17.02;9.90;;;13.40;99.90;;;;;;5547475;25;19997;-42
2024/04/14 04:13:31;;;;;;;11.95;9.82;;;13.40;99.90;;;;;;5548033;25;20001;-46
2024/04/14 04:16:00;;;;;;;11.80;9.80;;;13.40;99.90;;;;;;5547661;25;20016;-46
2024/04/14 04:18:28;;;;;;;14.32;9.55;;;13.40;99.90;;;;;;5550750;25;20519;-50
2024/04/14 04:20:57;;;;;;;11.57;9.07;;;13.40;99.90;;;;;;5516946;25;20015;-46
2024/04/14 04:23:26;;;;;;;9.63;8.60;;;13.40;99.90;;;;;;5553990;25;20484;-44
2024/04/14 04:25:56;;;;;;;12.43;9.38;;;13.40;99.90;;;;;;5536860;25;20005;-47
2024/04/14 04:28:24;;;;;;;17.30;12.35;;;13.50;99.90;;;;;;5549927;25;20020;-50
2024/04/14 04:30:52;;;;;;;11.18;9.75;;;13.40;99.90;;;;;;5547485;25;20000;-49
2024/04/14 04:33:19;;;;;;;10.82;8.55;;;13.50;99.90;;;;;;5547641;25;20124;-46
2024/04/14 04:35:54;;;;;;;11.30;9.07;;;13.50;99.90;;;;;;5541283;25;20119;-43
2024/04/14 04:38:25;;;;;;;11.77;8.98;;;13.50;99.90;;;;;;5545223;25;20140;-44
2024/04/14 04:40:53;;;;;;;9.93;8.23;;;13.50;99.90;;;;;;5543869;25;20529;-49
2024/04/14 04:43:21;;;;;;;13.20;8.77;;;13.50;99.90;;;;;;5548305;25;19997;-47
2024/04/14 04:45:49;;;;;;;10.15;9.05;;;13.50;99.90;;;;;;5549190;25;20004;-47
2024/04/14 04:48:16;;;;;;;10.35;8.68;;;13.50;99.90;;;;;;5549794;25;20013;-48
2024/04/14 04:50:45;;;;;;;11.63;8.93;;;13.60;99.90;;;;;;5554019;25;20000;-44
2024/04/14 04:53:14;;;;;;;13.23;9.20;;;13.60;99.90;;;;;;5537191;25;20024;-52
2024/04/14 04:55:42;;;;;;;10.15;8.13;;;13.70;99.90;;;;;;5551226;25;20000;-45
2024/04/14 04:58:08;;;;;;;11.50;8.40;;;13.70;99.90;;;;;;5534122;25;20005;-45
2024/04/14 05:00:36;;;;;;;10.98;8.73;;;13.70;99.90;;;;;;5545364;25;20097;-46
2024/04/14 05:03:03;;;;;;;11.52;8.43;;;13.80;99.90;;;;;;5540966;25;19997;-50
2024/04/14 05:05:30;;;;;;;11.30;7.63;;;13.80;99.90;;;;;;5545454;25;19997;-46
2024/04/14 05:07:57;;;;;;;12.32;8.57;;;13.80;99.90;;;;;;5539521;25;20013;-49
2024/04/14 05:10:25;;;;;;;10.00;7.57;;;13.90;99.90;;;;;;5540126;25;20500;-47
2024/04/14 05:12:56;;;;;;;10.63;8.38;;;14.00;99.90;;;;;;5548479;25;20067;-50
2024/04/14 05:15:23;;;;;;;10.65;7.95;;;14.00;99.90;;;;;;5537468;25;20116;-47
2024/04/14 05:17:50;;;;;;;14.68;8.60;;;14.20;99.90;;;;;;5546929;25;20483;-46
2024/04/14 05:20:17;;;;;;;9.25;7.43;;;14.20;99.90;;;;;;5542628;25;20009;-47
2024/04/14 05:22:44;;;;;;;10.50;8.18;;;14.30;99.90;;;;;;5544615;25;20043;-48
2024/04/14 05:25:11;;;;;;;10.20;7.63;;;14.40;99.90;;;;;;5538980;25;20263;-49
2024/04/14 05:27:38;;;;;;;10.18;7.25;;;14.50;99.90;;;;;;5551364;25;20133;-45
2024/04/14 05:30:05;;;;;;;11.57;7.22;;;14.50;99.90;;;;;;5542885;25;19998;-48
2024/04/14 05:32:32;;;;;;;9.98;8.45;;;14.60;99.90;;;;;;5534298;25;20016;-49
2024/04/14 05:35:03;;;;;;;11.55;7.50;;;14.70;99.90;;;;;;5545969;25;20017;-44
2024/04/14 05:37:30;;;;;;;9.57;7.25;;;14.80;99.90;;;;;;5548254;25;20104;-45
2024/04/14 05:39:57;;;;;;;10.10;7.55;;;14.80;99.90;;;;;;5540940;25;20121;-48
2024/04/14 05:42:25;;;;;;;11.13;6.75;;;14.90;99.90;;;;;;5547259;25;20001;-47
2024/04/14 05:44:51;;;;;;;11.23;7.25;;;15.00;99.90;;;;;;5546683;25;20005;-49
2024/04/14 05:47:18;;;;;;;8.30;6.93;;;15.10;99.90;;;;;;5534472;25;20039;-48
2024/04/14 05:49:46;;;;;;;10.98;6.30;;;15.20;99.90;;;;;;5554362;25;20041;-45
2024/04/14 05:52:13;;;;;;;12.55;7.20;;;15.40;99.90;;;;;;5543613;25;19993;-44
2024/04/14 05:54:40;;;;;;;7.95;6.90;;;15.40;99.90;;;;;;5545196;25;20033;-47
2024/04/14 05:57:07;;;;;;;9.68;7.15;;;15.50;99.90;;;;;;5548290;25;20159;-45
2024/04/14 05:59:34;;;;;;;8.73;6.45;;;15.50;99.90;;;;;;5548848;25;20009;-43
2024/04/14 06:02:01;;;;;;;7.97;6.43;;;15.60;99.90;;;;;;5553336;25;20472;-47
2024/04/14 06:04:28;;;;;;;7.68;6.80;;;15.70;99.90;;;;;;5545488;25;20058;-49
2024/04/14 06:06:55;;;;;;;8.95;6.93;;;15.70;99.90;;;;;;5548757;25;20004;-46
2024/04/14 06:09:23;;;;;;;8.10;6.22;;;15.80;99.90;;;;;;5534306;25;20034;-44
2024/04/14 06:11:50;;;;;;;10.57;7.18;;;16.00;99.90;;;;;;5551305;25;20021;-46
2024/04/14 06:14:17;;;;;;;7.63;6.55;;;16.00;99.90;;;;;;5541087;25;20016;-44
2024/04/14 06:16:45;;;;;;;10.02;6.68;;;16.10;99.90;;;;;;5547574;25;20434;-46
2024/04/14 06:19:13;;;;;;;10.65;6.78;;;16.20;99.90;;;;;;5542493;25;20322;-47
2024/04/14 06:21:40;;;;;;;8.00;6.35;;;16.20;99.90;;;;;;5549137;25;20000;-47
2024/04/14 06:24:07;;;;;;;8.35;6.85;;;16.40;99.90;;;;;;5546830;25;20000;-47
2024/04/14 06:26:34;;;;;;;9.10;6.85;;;16.40;99.90;;;;;;5548628;25;20008;-49
2024/04/14 06:29:01;;;;;;;9.10;6.45;;;16.50;99.90;;;;;;5540400;25;20000;-50
2024/04/14 06:31:28;;;;;;;8.50;5.90;;;16.70;99.90;;;;;;5537915;25;20064;-47
2024/04/14 06:33:55;;;;;;;7.38;6.25;;;16.70;99.90;;;;;;5549292;25;20506;-49
2024/04/14 06:36:22;;;;;;;6.57;5.53;;;16.90;99.90;;;;;;5540652;25;20006;-43
2024/04/14 06:38:49;;;;;;;7.43;6.30;;;17.10;99.90;;;;;;5532817;25;20049;-45
2024/04/14 06:41:16;;;;;;;8.57;6.07;;;17.20;99.90;;;;;;5548500;25;20001;-46
2024/04/14 06:43:43;;;;;;;7.32;5.65;;;17.30;99.90;;;;;;5542535;25;20011;-47
2024/04/14 06:46:10;;;;;;;6.93;5.43;;;17.50;99.90;;;;;;5554740;25;20436;-45
2024/04/14 06:48:37;;;;;;;9.15;5.93;;;17.60;99.90;;;;;;5525428;25;20020;-46
2024/04/14 06:51:04;;;;;;;6.95;5.53;;;17.60;99.90;;;;;;5544825;25;19998;-47
2024/04/14 06:53:31;;;;;;;7.22;5.60;;;17.90;99.90;;;;;;5544754;25;20017;-42
2024/04/14 06:56:00;;;;;;;8.32;5.43;;;17.90;99.90;;;;;;5521341;25;20042;-47
2024/04/14 06:58:33;;;;;;;6.95;5.10;;;18.00;99.90;;;;;;5545006;25;20017;-47
2024/04/14 07:01:00;;;;;;;8.27;4.88;;;18.10;99.90;;;;;;5548002;25;19993;-49
2024/04/14 07:03:27;;;;;;;9.85;5.40;;;18.10;99.90;;;;;;5546018;25;20083;-47
2024/04/14 07:05:54;;;;;;;7.03;5.10;;;18.10;99.90;;;;;;5542960;25;19997;-43
2024/04/14 07:08:21;;;;;;;5.95;4.85;;;18.10;99.90;;;;;;5551105;25;20005;-48
2024/04/14 07:10:48;;;;;;;6.93;5.18;;;18.20;99.90;;;;;;5536326;25;20001;-50
2024/04/14 07:13:15;;;;;;;7.13;4.95;;;18.40;99.90;;;;;;5549004;25;20016;-46
2024/04/14 07:15:43;;;;;;;7.38;5.68;;;18.60;99.90;;;;;;5535080;25;19997;-51
2024/04/14 07:18:10;;;;;;;9.98;6.47;;;18.80;99.90;;;;;;5548416;25;20029;-45
2024/04/14 07:20:38;;;;;;;8.23;5.72;;;18.90;99.90;;;;;;5561726;25;20016;-46
2024/04/14 07:23:05;;;;;;;7.70;5.18;;;19.10;99.90;;;;;;5545725;25;20537;-44
2024/04/14 07:25:32;;;;;;;5.43;4.88;;;19.30;99.90;;;;;;5541909;25;20001;-48
2024/04/14 07:27:59;;;;;;;11.55;5.00;;;19.40;99.90;;;;;;5551215;25;19997;-47
2024/04/14 07:30:27;;;;;;;6.03;5.10;;;19.50;99.90;;;;;;5542354;25;20013;-46
2024/04/14 07:32:54;;;;;;;10.20;5.20;;;19.60;99.90;;;;;;5552922;25;20015;-47
2024/04/14 07:35:21;;;;;;;7.57;5.00;;;19.60;99.90;;;;;;5551210;25;20080;-51
2024/04/14 07:37:48;;;;;;;6.05;4.80;;;19.70;99.90;;;;;;5553557;25;20000;-45
2024/04/14 07:40:15;;;;;;;5.65;4.82;;;19.80;99.90;;;;;;5534515;25;20013;-48
2024/04/14 07:42:42;;;;;;;6.32;4.70;;;20.00;99.90;;;;;;5549344;25;20015;-45
2024/04/14 07:45:10;;;;;;;8.98;5.18;;;20.20;99.90;;;;;;5549203;25;20012;-48
2024/04/14 07:47:37;;;;;;;8.48;4.45;;;20.10;99.90;;;;;;5545377;25;20732;-50
2024/04/14 07:50:08;;;;;;;5.55;4.80;;;20.00;99.90;;;;;;5555547;25;20015;-47
2024/04/14 07:52:35;;;;;;;5.80;4.80;;;20.00;99.90;;;;;;5547034;25;20008;-48
2024/04/14 07:55:02;;;;;;;6.05;4.85;;;19.90;99.90;;;;;;5546279;25;20477;-43
2024/04/14 07:57:29;;;;;;;7.72;5.35;;;20.00;99.90;;;;;;5545884;25;20041;-49
2024/04/14 07:59:57;;;;;;;5.80;4.90;;;20.00;99.90;;;;;;5553613;25;20000;-49
2024/04/14 08:02:24;;;;;;;7.03;4.70;;;20.10;99.90;;;;;;5557896;25;20001;-46
2024/04/14 08:04:51;;;;;;;6.95;4.80;;;20.30;99.90;;;;;;5545457;25;19997;-45
2024/04/14 08:07:18;;;;;;;7.15;4.95;;;20.40;99.90;;;;;;5553295;25;20020;-50
2024/04/14 08:09:45;;;;;;;7.22;5.03;;;20.40;99.90;;;;;;5549419;25;20011;-45
2024/04/14 08:12:12;;;;;;;6.65;4.65;;;20.50;99.90;;;;;;5535815;25;20012;-50
2024/04/14 08:14:39;;;;;;;6.68;4.85;;;20.60;99.90;;;;;;5511873;25;20411;-45
2024/04/14 08:17:06;;;;;;;6.32;4.88;;;20.70;99.90;;;;;;5534477;25;20045;-43
2024/04/14 08:19:33;;;;;;;7.05;5.45;;;20.70;99.90;;;;;;5545754;25;20000;-46
2024/04/14 08:22:00;;;;;;;5.93;5.32;;;20.80;99.90;;;;;;5541852;25;20005;-44
2024/04/14 08:24:27;;;;;;;8.48;4.97;;;21.00;99.90;;;;;;5533979;25;20024;-46
2024/04/14 08:26:54;;;;;;;7.70;5.30;;;21.20;99.90;;;;;;5545742;25;20012;-51
2024/04/14 08:29:21;;;;;;;7.03;5.20;;;21.20;99.90;;;;;;5550837;25;20001;-49
2024/04/14 08:31:48;;;;;;;6.38;5.15;;;21.10;99.90;;;;;;5549886;25;20016;-43
2024/04/14 08:34:15;;;;;;;6.00;4.88;;;21.00;99.90;;;;;;5535121;25;20393;-48
2024/04/14 08:36:42;;;;;;;8.18;5.15;;;21.10;99.90;;;;;;5540362;25;20028;-51
2024/04/14 08:39:10;;;;;;;6.43;5.10;;;21.20;99.90;;;;;;5545176;25;20020;-51
2024/04/14 08:41:41;;;;;;;5.38;4.35;;;21.40;99.90;;;;;;5540647;25;20013;-49
2024/04/14 08:44:13;;;;;;;5.93;4.55;;;21.50;99.90;;;;;;5542634;25;20702;-49
2024/04/14 08:46:44;;;;;;;5.53;4.50;;;21.70;99.90;;;;;;5513033;25;19996;-50
2024/04/14 08:49:13;;;;;;;9.15;4.70;;;21.70;99.90;;;;;;5540617;25;19996;-49
2024/04/14 08:51:41;;;;;;;6.78;4.70;;;22.00;99.90;;;;;;5551417;25;20011;-48
2024/04/14 08:54:08;;;;;;;7.00;4.50;;;22.00;99.90;;;;;;5548090;25;20444;-46
2024/04/14 08:56:36;;;;;;;7.40;5.22;;;22.00;99.90;;;;;;5546539;25;20016;-49
2024/04/14 08:59:07;;;;;;;8.80;4.20;;;22.00;99.90;;;;;;5549071;25;20406;-48
2024/04/14 09:01:34;;;;;;;4.85;4.13;;;21.80;99.90;;;;;;5551950;25;20016;-46
2024/04/14 09:04:05;;;;;;;5.25;4.63;;;21.60;99.90;;;;;;5536235;25;20008;-45
2024/04/14 09:06:33;;;;;;;6.38;4.30;;;21.60;99.90;;;;;;5549869;25;20375;-49
2024/04/14 09:09:01;;;;;;;5.90;4.43;;;21.60;99.90;;;;;;5547378;25;20001;-48
2024/04/14 09:11:28;;;;;;;6.57;4.70;;;21.60;99.90;;;;;;5549665;25;19997;-45
2024/04/14 09:13:56;;;;;;;6.38;5.00;;;21.80;99.90;;;;;;5548412;25;20005;-43
2024/04/14 09:16:23;;;;;;;5.70;4.40;;;21.70;99.90;;;;;;5545457;25;20007;-42
2024/04/14 09:18:52;;;;;;;6.90;4.15;;;21.70;99.90;;;;;;5541488;25;20077;-46
2024/04/14 09:21:19;;;;;;;5.15;4.32;;;21.70;99.90;;;;;;5527557;25;20006;-44
2024/04/14 09:23:56;;;;;;;8.07;4.55;;;21.80;99.90;;;;;;5540087;25;20007;-48
2024/04/14 09:26:24;;;;;;;12.93;4.95;;;21.60;99.90;;;;;;5547210;25;20012;-51
2024/04/14 09:29:08;;;;;;;4.80;4.30;;;21.90;99.90;;;;;;5546535;25;19997;-48
2024/04/14 09:31:35;;;;;;;5.05;4.20;;;21.90;99.90;;;;;;5545543;25;20071;-51
2024/04/14 09:34:04;;;;;;;5.03;4.53;;;22.20;99.90;;;;;;5549363;25;20034;-47
2024/04/14 09:36:32;;;;;;;6.57;4.50;;;22.40;99.90;;;;;;5549559;25;20017;-46
2024/04/14 09:39:01;;;;;;;5.10;4.60;;;22.40;99.90;;;;;;5544001;25;20059;-45
2024/04/14 09:41:29;;;;;;;5.25;4.65;;;22.50;99.90;;;;;;5532930;25;19998;-47
2024/04/14 09:43:58;;;;;;;5.22;4.45;;;22.60;99.90;;;;;;5552425;25;20008;-43
2024/04/14 09:46:27;;;;;;;6.30;4.60;;;22.80;99.90;;;;;;5536926;25;20560;-46
2024/04/14 09:48:56;;;;;;;5.93;4.28;;;22.70;99.90;;;;;;5538404;25;20524;-46
2024/04/14 09:51:26;;;;;;;5.85;4.50;;;22.70;99.90;;;;;;5549043;25;20338;-46
2024/04/14 09:53:55;;;;;;;5.95;4.15;;;22.60;99.90;;;;;;5552960;25;20480;-48
2024/04/14 09:56:23;;;;;;;6.38;4.63;;;22.80;99.90;;;;;;5540566;25;20046;-45
2024/04/14 09:58:54;;;;;;;5.13;4.43;;;23.00;99.90;;;;;;5557429;25;20015;-45
2024/04/14 10:01:28;;;;;;;5.03;4.00;;;23.10;99.90;;;;;;5543405;25;20392;-47
2024/04/14 10:03:58;;;;;;;5.25;3.97;;;23.10;99.90;;;;;;5547245;25;20090;-47
2024/04/14 10:06:27;;;;;;;6.25;4.50;;;23.50;99.90;;;;;;5548073;25;20001;-46
2024/04/14 10:08:55;;;;;;;5.40;4.35;;;23.50;99.90;;;;;;5519809;25;20020;-44
2024/04/14 10:11:25;;;;;;;5.85;4.07;;;23.40;99.90;;;;;;5537560;25;20005;-47
2024/04/14 10:13:54;;;;;;;5.07;4.20;;;23.30;99.90;;;;;;5541563;25;20004;-53
2024/04/14 10:16:24;;;;;;;5.30;4.10;;;23.20;99.90;;;;;;5543006;25;20049;-42
2024/04/14 10:18:51;;;;;;;4.72;4.25;;;23.20;99.90;;;;;;5530574;25;20015;-51
2024/04/14 10:21:21;;;;;;;6.75;4.28;;;23.30;99.90;;;;;;5534475;25;20072;-50
2024/04/14 10:23:54;;;;;;;6.43;4.30;;;23.40;99.90;;;;;;5532377;25;19996;-49
2024/04/14 10:26:22;;;;;;;6.10;4.35;;;23.60;99.90;;;;;;5530829;25;20013;-46
2024/04/14 10:28:53;;;;;;;6.53;3.85;;;23.20;99.90;;;;;;5543714;25;20004;-45
2024/04/14 10:31:31;;;;;;;6.28;4.47;;;23.40;99.90;;;;;;5535669;25;20412;-46
2024/04/14 10:34:06;;;;;;;6.47;4.55;;;23.60;99.90;;;;;;5546726;25;20028;-49
2024/04/14 10:36:37;;;;;;;8.77;4.65;;;23.50;99.90;;;;;;5538402;25;20016;-50
2024/04/14 10:39:04;;;;;;;5.45;4.30;;;23.20;99.90;;;;;;5533669;25;20020;-49
2024/04/14 10:41:34;;;;;;;6.47;4.20;;;23.00;99.90;;;;;;5534824;25;20086;-49
2024/04/14 10:44:01;;;;;;;5.90;4.38;;;23.20;99.90;;;;;;5541807;25;20341;-48
2024/04/14 10:46:28;;;;;;;4.80;4.30;;;23.40;99.90;;;;;;5549639;25;20494;-46
2024/04/14 10:48:55;;;;;;;10.02;4.45;;;23.40;99.90;;;;;;5531070;25;20033;-46
2024/04/14 10:51:23;;;;;;;4.57;4.18;;;23.60;99.90;;;;;;5544760;25;20009;-49
2024/04/14 10:53:53;;;;;;;6.50;4.40;;;23.60;99.90;;;;;;5554022;25;20462;-43
2024/04/14 10:56:20;;;;;;;5.95;4.25;;;23.90;99.90;;;;;;5539179;25;20099;-46
2024/04/14 10:58:48;;;;;;;5.43;4.50;;;23.90;99.90;;;;;;5558441;25;20490;-47
2024/04/14 11:01:15;;;;;;;6.88;4.40;;;23.60;99.90;;;;;;5548934;25;20755;-51
2024/04/14 11:03:42;;;;;;;5.22;4.60;;;23.70;99.90;;;;;;5545905;25;20001;-45
2024/04/14 11:06:10;;;;;;;4.85;4.35;;;23.90;99.90;;;;;;5553718;25;20001;-48
2024/04/14 11:08:38;;;;;;;8.85;4.70;;;23.90;99.90;;;;;;5545427;25;20319;-46
2024/04/14 11:11:07;;;;;;;5.22;4.72;;;24.20;99.90;;;;;;5545149;25;19996;-52
2024/04/14 11:13:35;;;;;;;7.38;4.80;;;24.20;99.90;;;;;;5544175;25;20434;-44
2024/04/14 11:16:05;;;;;;;5.05;4.50;;;24.20;99.90;;;;;;5550077;25;20000;-46
2024/04/14 11:18:33;;;;;;;6.60;4.80;;;24.50;99.90;;;;;;5548683;25;20376;-45
2024/04/14 11:21:00;;;;;;;6.15;4.75;;;24.60;99.90;;;;;;5549625;25;20468;-48
2024/04/14 11:23:27;;;;;;;8.32;5.00;;;24.50;99.90;;;;;;5537627;25;20139;-47
2024/04/14 11:25:55;;;;;;;5.55;4.97;;;24.40;99.90;;;;;;5538813;25;20000;-49
2024/04/14 11:28:22;;;;;;;5.15;4.40;;;24.40;99.90;;;;;;5552695;25;20554;-49
2024/04/14 11:30:51;;;;;;;6.82;4.50;;;24.10;99.90;;;;;;5546553;25;20115;-49
2024/04/14 11:33:25;;;;;;;6.78;4.90;;;24.10;99.90;;;;;;5547711;25;20004;-52
2024/04/14 11:35:59;;;;;;;5.93;5.30;;;24.40;99.90;;;;;;5545363;25;19996;-45
2024/04/14 11:38:26;;;;;;;6.22;5.15;;;23.90;99.90;;;;;;5543292;25;20013;-46
2024/04/14 11:40:54;;;;;;;7.68;5.00;;;23.90;99.90;;;;;;5541037;25;20461;-46
2024/04/14 11:43:22;;;;;;;6.35;4.93;;;24.20;99.90;;;;;;5514095;25;20009;-45
2024/04/14 11:45:49;;;;;;;7.10;4.47;;;24.30;99.90;;;;;;5542521;25;20001;-46
2024/04/14 11:48:17;;;;;;;6.75;4.80;;;24.50;99.90;;;;;;5539031;25;20009;-50
2024/04/14 11:50:44;;;;;;;7.40;4.72;;;24.40;99.90;;;;;;5552945;25;20020;-43
2024/04/14 11:53:11;;;;;;;5.20;4.70;;;24.40;99.90;;;;;;5536388;25;20093;-47
2024/04/14 11:55:38;;;;;;;5.32;4.70;;;24.50;99.90;;;;;;5554349;25;20076;-53
2024/04/14 11:58:06;;;;;;;5.30;4.70;;;24.10;99.90;;;;;;5505870;25;20486;-45
2024/04/14 12:00:33;;;;;;;5.40;4.22;;;24.10;99.90;;;;;;5552517;25;20004;-50
2024/04/14 12:03:01;;;;;;;5.38;4.72;;;24.20;99.90;;;;;;5540407;25;20051;-48
2024/04/14 12:05:28;;;;;;;7.65;4.90;;;24.00;99.90;;;;;;5549692;25;20076;-44
2024/04/14 12:07:55;;;;;;;4.85;4.38;;;24.10;99.90;;;;;;5550125;25;20104;-51
2024/04/14 12:10:22;;;;;;;5.40;4.55;;;24.30;99.90;;;;;;5542683;25;20001;-45
2024/04/14 12:12:50;;;;;;;5.07;4.57;;;24.10;99.90;;;;;;5551955;25;20009;-47
2024/04/14 12:15:17;;;;;;;7.70;4.82;;;24.20;99.90;;;;;;5548625;25;20009;-53
2024/04/14 12:17:44;;;;;;;5.70;5.10;;;24.00;99.90;;;;;;5531812;25;20012;-48
2024/04/14 12:20:12;;;;;;;7.68;4.93;;;23.80;99.90;;;;;;5534150;25;19997;-46
2024/04/14 12:22:39;;;;;;;6.28;4.60;;;23.80;99.90;;;;;;5541669;25;20355;-50
2024/04/14 12:25:06;;;;;;;4.95;4.45;;;23.80;99.90;;;;;;5546204;25;20006;-47
2024/04/14 12:27:34;;;;;;;5.40;4.45;;;23.80;99.90;;;;;;5554538;25;20037;-47
2024/04/14 12:30:02;;;;;;;5.70;4.70;;;23.60;99.90;;;;;;5540254;25;20004;-49
2024/04/14 12:32:29;;;;;;;6.68;4.88;;;23.70;99.90;;;;;;5555062;25;20001;-45
2024/04/14 12:34:59;;;;;;;5.72;4.97;;;23.90;99.90;;;;;;5553166;25;20001;-46
2024/04/14 12:37:26;;;;;;;5.15;4.65;;;23.70;99.90;;;;;;5542110;25;20015;-46
2024/04/14 12:39:53;;;;;;;7.18;4.93;;;23.90;99.90;;;;;;5540620;25;20019;-46
2024/04/14 12:42:20;;;;;;;5.63;5.00;;;24.20;99.90;;;;;;5554396;25;20454;-47